sensor_id;sensor_type;location;lat;lon;timestamp;P1;durP1;ratioP1;P2;durP2;ratioP2
13685;SDS011;6915;48.296;8.874;2023-09-19T01:49:09;1.20;;;0.90;;
13685;SDS011;6915;48.296;8.874;2023-09-19T01:51:50;2.00;;;1.10;;
13685;SDS011;6915;48.296;8.874;2023-09-19T01:54:25;4.50;;;0.90;;
13685;SDS011;6915;48.296;8.874;2023-09-19T01:56:57;1.10;;;1.00;;
13685;SDS011;6915;48.296;8.874;2023-09-19T01:59:31;3.23;;;1.30;;
13685;SDS011;6915;48.296;8.874;2023-09-19T02:02:05;2.17;;;1.00;;
13685;SDS011;6915;48.296;8.874;2023-09-19T02:04:35;2.53;;;0.90;;
13685;SDS011;6915;48.296;8.874;2023-09-19T02:07:02;1.47;;;0.93;;
13685;SDS011;6915;48.296;8.874;2023-09-19T02:09:30;4.17;;;1.00;;
13685;SDS011;6915;48.296;8.874;2023-09-19T02:11:58;5.37;;;1.10;;
13685;SDS011;6915;48.296;8.874;2023-09-19T02:14:25;0.90;;;0.90;;
13685;SDS011;6915;48.296;8.874;2023-09-19T02:16:54;1.00;;;0.90;;
13685;SDS011;6915;48.296;8.874;2023-09-19T02:19:21;2.47;;;1.00;;
13685;SDS011;6915;48.296;8.874;2023-09-19T02:21:49;1.20;;;1.10;;
13685;SDS011;6915;48.296;8.874;2023-09-19T02:24:17;2.80;;;1.20;;
13685;SDS011;6915;48.296;8.874;2023-09-19T02:26:44;0.97;;;0.97;;
13685;SDS011;6915;48.296;8.874;2023-09-19T02:29:12;2.17;;;1.00;;
13685;SDS011;6915;48.296;8.874;2023-09-19T02:31:39;1.57;;;1.03;;
13685;SDS011;6915;48.296;8.874;2023-09-19T02:34:07;1.73;;;1.17;;
13685;SDS011;6915;48.296;8.874;2023-09-19T02:36:34;0.90;;;0.90;;
13685;SDS011;6915;48.296;8.874;2023-09-19T02:39:03;1.80;;;1.00;;
13685;SDS011;6915;48.296;8.874;2023-09-19T02:41:33;1.73;;;1.00;;
13685;SDS011;6915;48.296;8.874;2023-09-19T02:44:00;2.03;;;1.20;;
13685;SDS011;6915;48.296;8.874;2023-09-19T02:46:27;1.50;;;1.20;;
13685;SDS011;6915;48.296;8.874;2023-09-19T02:48:55;1.20;;;1.10;;
13685;SDS011;6915;48.296;8.874;2023-09-19T02:51:22;1.60;;;1.10;;
13685;SDS011;6915;48.296;8.874;2023-09-19T02:53:49;1.33;;;0.93;;
13685;SDS011;6915;48.296;8.874;2023-09-19T02:56:18;1.30;;;1.10;;
13685;SDS011;6915;48.296;8.874;2023-09-19T02:58:45;1.83;;;1.03;;
13685;SDS011;6915;48.296;8.874;2023-09-19T03:01:13;0.93;;;0.87;;
13685;SDS011;6915;48.296;8.874;2023-09-19T03:03:40;1.83;;;1.13;;
13685;SDS011;6915;48.296;8.874;2023-09-19T03:06:07;2.20;;;1.00;;
13685;SDS011;6915;48.296;8.874;2023-09-19T03:08:35;1.50;;;1.00;;
13685;SDS011;6915;48.296;8.874;2023-09-19T03:11:04;1.43;;;1.10;;
13685;SDS011;6915;48.296;8.874;2023-09-19T03:13:34;1.33;;;1.00;;
13685;SDS011;6915;48.296;8.874;2023-09-19T03:16:03;1.53;;;1.17;;
13685;SDS011;6915;48.296;8.874;2023-09-19T03:18:30;0.87;;;0.83;;
13685;SDS011;6915;48.296;8.874;2023-09-19T03:20:58;2.73;;;1.07;;
13685;SDS011;6915;48.296;8.874;2023-09-19T03:23:26;0.73;;;0.73;;
13685;SDS011;6915;48.296;8.874;2023-09-19T03:25:53;1.67;;;1.10;;
13685;SDS011;6915;48.296;8.874;2023-09-19T03:28:21;1.20;;;0.80;;
13685;SDS011;6915;48.296;8.874;2023-09-19T03:30:58;1.33;;;0.83;;
13685;SDS011;6915;48.296;8.874;2023-09-19T03:33:26;1.63;;;1.20;;
13685;SDS011;6915;48.296;8.874;2023-09-19T03:35:53;1.60;;;1.00;;
13685;SDS011;6915;48.296;8.874;2023-09-19T03:38:23;2.37;;;1.03;;
13685;SDS011;6915;48.296;8.874;2023-09-19T03:40:50;1.03;;;0.93;;
13685;SDS011;6915;48.296;8.874;2023-09-19T03:43:16;1.13;;;1.00;;
13685;SDS011;6915;48.296;8.874;2023-09-19T03:45:44;1.93;;;0.80;;
13685;SDS011;6915;48.296;8.874;2023-09-19T03:48:13;1.90;;;1.10;;
13685;SDS011;6915;48.296;8.874;2023-09-19T03:50:39;1.37;;;1.17;;
13685;SDS011;6915;48.296;8.874;2023-09-19T03:53:09;1.20;;;1.10;;
13685;SDS011;6915;48.296;8.874;2023-09-19T03:55:35;2.07;;;1.10;;
13685;SDS011;6915;48.296;8.874;2023-09-19T03:58:03;1.70;;;1.00;;
13685;SDS011;6915;48.296;8.874;2023-09-19T04:00:30;2.57;;;1.20;;
13685;SDS011;6915;48.296;8.874;2023-09-19T04:02:57;2.80;;;1.27;;
13685;SDS011;6915;48.296;8.874;2023-09-19T04:05:27;1.03;;;0.93;;
13685;SDS011;6915;48.296;8.874;2023-09-19T04:07:54;1.30;;;1.00;;
13685;SDS011;6915;48.296;8.874;2023-09-19T04:10:21;2.50;;;1.00;;
13685;SDS011;6915;48.296;8.874;2023-09-19T04:12:50;2.40;;;1.10;;
13685;SDS011;6915;48.296;8.874;2023-09-19T04:15:18;1.00;;;0.90;;
13685;SDS011;6915;48.296;8.874;2023-09-19T04:17:48;1.30;;;0.90;;
13685;SDS011;6915;48.296;8.874;2023-09-19T04:20:15;1.03;;;0.93;;
13685;SDS011;6915;48.296;8.874;2023-09-19T04:22:44;1.30;;;0.80;;
13685;SDS011;6915;48.296;8.874;2023-09-19T04:25:10;1.10;;;0.90;;
13685;SDS011;6915;48.296;8.874;2023-09-19T04:27:37;1.63;;;0.70;;
13685;SDS011;6915;48.296;8.874;2023-09-19T04:30:05;1.87;;;1.30;;
13685;SDS011;6915;48.296;8.874;2023-09-19T04:32:36;3.00;;;0.90;;
13685;SDS011;6915;48.296;8.874;2023-09-19T04:35:05;2.00;;;0.90;;
13685;SDS011;6915;48.296;8.874;2023-09-19T04:37:35;2.27;;;0.90;;
13685;SDS011;6915;48.296;8.874;2023-09-19T04:40:06;0.77;;;0.73;;
13685;SDS011;6915;48.296;8.874;2023-09-19T04:42:38;1.53;;;1.10;;
13685;SDS011;6915;48.296;8.874;2023-09-19T04:45:06;0.97;;;0.80;;
13685;SDS011;6915;48.296;8.874;2023-09-19T04:47:35;2.03;;;0.70;;
13685;SDS011;6915;48.296;8.874;2023-09-19T04:50:04;1.60;;;0.70;;
13685;SDS011;6915;48.296;8.874;2023-09-19T04:52:38;0.60;;;0.60;;
13685;SDS011;6915;48.296;8.874;2023-09-19T04:55:08;0.90;;;0.70;;
13685;SDS011;6915;48.296;8.874;2023-09-19T04:57:35;2.13;;;0.70;;
13685;SDS011;6915;48.296;8.874;2023-09-19T05:00:04;1.33;;;0.80;;
13685;SDS011;6915;48.296;8.874;2023-09-19T05:02:37;0.70;;;0.60;;
13685;SDS011;6915;48.296;8.874;2023-09-19T05:05:05;0.70;;;0.70;;
13685;SDS011;6915;48.296;8.874;2023-09-19T05:07:33;1.13;;;0.80;;
13685;SDS011;6915;48.296;8.874;2023-09-19T05:10:00;2.30;;;0.70;;
13685;SDS011;6915;48.296;8.874;2023-09-19T05:12:32;3.03;;;0.80;;
13685;SDS011;6915;48.296;8.874;2023-09-19T05:15:07;2.77;;;1.00;;
13685;SDS011;6915;48.296;8.874;2023-09-19T05:17:35;0.70;;;0.70;;
13685;SDS011;6915;48.296;8.874;2023-09-19T05:20:03;2.50;;;0.90;;
13685;SDS011;6915;48.296;8.874;2023-09-19T05:22:40;2.27;;;0.70;;
13685;SDS011;6915;48.296;8.874;2023-09-19T05:25:08;1.13;;;0.80;;
13685;SDS011;6915;48.296;8.874;2023-09-19T05:27:36;1.00;;;0.70;;
13685;SDS011;6915;48.296;8.874;2023-09-19T05:30:04;4.67;;;0.80;;
13685;SDS011;6915;48.296;8.874;2023-09-19T05:32:32;1.60;;;1.00;;
13685;SDS011;6915;48.296;8.874;2023-09-19T05:34:59;1.70;;;0.93;;
13685;SDS011;6915;48.296;8.874;2023-09-19T05:37:26;1.63;;;1.00;;
13685;SDS011;6915;48.296;8.874;2023-09-19T05:39:53;1.57;;;1.20;;
13685;SDS011;6915;48.296;8.874;2023-09-19T05:42:19;1.63;;;0.80;;
13685;SDS011;6915;48.296;8.874;2023-09-19T05:44:48;2.73;;;0.90;;
13685;SDS011;6915;48.296;8.874;2023-09-19T05:47:15;1.13;;;0.80;;
13685;SDS011;6915;48.296;8.874;2023-09-19T05:49:41;1.17;;;0.80;;
13685;SDS011;6915;48.296;8.874;2023-09-19T05:52:09;1.37;;;0.90;;
13685;SDS011;6915;48.296;8.874;2023-09-19T05:54:35;1.07;;;0.97;;
13685;SDS011;6915;48.296;8.874;2023-09-19T05:57:02;1.10;;;1.00;;
13685;SDS011;6915;48.296;8.874;2023-09-19T05:59:30;0.80;;;0.70;;
13685;SDS011;6915;48.296;8.874;2023-09-19T06:01:59;0.80;;;0.77;;
13685;SDS011;6915;48.296;8.874;2023-09-19T06:04:26;2.00;;;1.00;;
13685;SDS011;6915;48.296;8.874;2023-09-19T06:06:55;1.53;;;1.03;;
13685;SDS011;6915;48.296;8.874;2023-09-19T06:09:23;1.83;;;1.10;;
13685;SDS011;6915;48.296;8.874;2023-09-19T06:11:52;3.87;;;0.90;;
13685;SDS011;6915;48.296;8.874;2023-09-19T06:14:20;3.60;;;1.00;;
13685;SDS011;6915;48.296;8.874;2023-09-19T06:16:49;1.13;;;0.90;;
13685;SDS011;6915;48.296;8.874;2023-09-19T06:19:20;2.50;;;1.07;;
13685;SDS011;6915;48.296;8.874;2023-09-19T06:21:51;2.37;;;1.00;;
13685;SDS011;6915;48.296;8.874;2023-09-19T06:24:19;0.97;;;0.90;;
13685;SDS011;6915;48.296;8.874;2023-09-19T06:26:46;0.70;;;0.70;;
13685;SDS011;6915;48.296;8.874;2023-09-19T06:29:14;1.03;;;0.77;;
13685;SDS011;6915;48.296;8.874;2023-09-19T06:31:41;1.63;;;0.97;;
13685;SDS011;6915;48.296;8.874;2023-09-19T06:34:09;1.67;;;0.90;;
13685;SDS011;6915;48.296;8.874;2023-09-19T06:36:38;1.93;;;0.90;;
13685;SDS011;6915;48.296;8.874;2023-09-19T06:39:06;1.30;;;1.00;;
13685;SDS011;6915;48.296;8.874;2023-09-19T06:41:35;2.00;;;1.10;;
13685;SDS011;6915;48.296;8.874;2023-09-19T06:44:03;1.70;;;1.10;;
13685;SDS011;6915;48.296;8.874;2023-09-19T06:46:31;2.30;;;1.00;;
13685;SDS011;6915;48.296;8.874;2023-09-19T06:49:00;1.77;;;1.00;;
13685;SDS011;6915;48.296;8.874;2023-09-19T06:51:28;1.13;;;0.87;;
13685;SDS011;6915;48.296;8.874;2023-09-19T06:53:57;3.10;;;1.23;;
13685;SDS011;6915;48.296;8.874;2023-09-19T06:56:24;1.30;;;1.13;;
13685;SDS011;6915;48.296;8.874;2023-09-19T06:58:51;3.20;;;0.80;;
13685;SDS011;6915;48.296;8.874;2023-09-19T07:01:18;2.33;;;1.03;;
13685;SDS011;6915;48.296;8.874;2023-09-19T07:03:45;2.40;;;1.00;;
13685;SDS011;6915;48.296;8.874;2023-09-19T07:06:12;1.87;;;0.83;;
13685;SDS011;6915;48.296;8.874;2023-09-19T07:08:39;3.80;;;0.90;;
13685;SDS011;6915;48.296;8.874;2023-09-19T07:11:07;1.97;;;0.77;;
13685;SDS011;6915;48.296;8.874;2023-09-19T07:13:34;0.73;;;0.73;;
13685;SDS011;6915;48.296;8.874;2023-09-19T07:16:01;2.60;;;0.90;;
13685;SDS011;6915;48.296;8.874;2023-09-19T07:18:28;1.17;;;0.87;;
13685;SDS011;6915;48.296;8.874;2023-09-19T07:20:57;1.93;;;1.00;;
13685;SDS011;6915;48.296;8.874;2023-09-19T07:23:30;3.03;;;1.10;;
13685;SDS011;6915;48.296;8.874;2023-09-19T07:26:00;0.80;;;0.80;;
13685;SDS011;6915;48.296;8.874;2023-09-19T07:28:31;1.53;;;1.10;;
13685;SDS011;6915;48.296;8.874;2023-09-19T07:31:01;2.97;;;1.10;;
13685;SDS011;6915;48.296;8.874;2023-09-19T07:33:30;2.60;;;1.00;;
13685;SDS011;6915;48.296;8.874;2023-09-19T07:35:57;1.50;;;0.97;;
13685;SDS011;6915;48.296;8.874;2023-09-19T07:38:24;1.93;;;0.97;;
13685;SDS011;6915;48.296;8.874;2023-09-19T07:40:52;1.63;;;1.20;;
13685;SDS011;6915;48.296;8.874;2023-09-19T07:43:20;2.23;;;1.10;;
13685;SDS011;6915;48.296;8.874;2023-09-19T07:45:48;1.17;;;1.07;;
13685;SDS011;6915;48.296;8.874;2023-09-19T07:48:15;1.43;;;1.10;;
13685;SDS011;6915;48.296;8.874;2023-09-19T07:50:42;1.50;;;1.20;;
13685;SDS011;6915;48.296;8.874;2023-09-19T07:53:09;2.67;;;1.30;;
13685;SDS011;6915;48.296;8.874;2023-09-19T07:55:38;1.73;;;1.00;;
13685;SDS011;6915;48.296;8.874;2023-09-19T07:58:06;1.60;;;1.47;;
13685;SDS011;6915;48.296;8.874;2023-09-19T10:05:03;2.25;;;1.00;;
13685;SDS011;6915;48.296;8.874;2023-09-19T10:08:09;1.70;;;1.05;;
13685;SDS011;6915;48.296;8.874;2023-09-19T10:10:45;2.83;;;1.30;;
13685;SDS011;6915;48.296;8.874;2023-09-19T10:13:31;1.13;;;1.00;;
13685;SDS011;6915;48.296;8.874;2023-09-19T10:16:22;0.95;;;0.85;;
13685;SDS011;6915;48.296;8.874;2023-09-19T10:19:29;0.90;;;0.70;;
13685;SDS011;6915;48.296;8.874;2023-09-19T10:28:00;3.47;;;0.80;;
13685;SDS011;6915;48.296;8.874;2023-09-19T10:31:08;1.23;;;0.90;;
13685;SDS011;6915;48.296;8.874;2023-09-19T10:34:05;2.63;;;1.00;;
13685;SDS011;6915;48.296;8.874;2023-09-19T10:36:35;1.27;;;0.90;;
13685;SDS011;6915;48.296;8.874;2023-09-19T10:39:10;3.65;;;0.90;;
13685;SDS011;6915;48.296;8.874;2023-09-19T10:41:47;2.30;;;0.90;;
13685;SDS011;6915;48.296;8.874;2023-09-19T10:44:23;1.10;;;0.82;;
13685;SDS011;6915;48.296;8.874;2023-09-19T10:46:53;0.93;;;0.70;;
13685;SDS011;6915;48.296;8.874;2023-09-19T10:49:22;0.98;;;0.85;;
13685;SDS011;6915;48.296;8.874;2023-09-19T10:51:53;3.03;;;0.80;;
13685;SDS011;6915;48.296;8.874;2023-09-19T10:54:26;0.90;;;0.73;;
13685;SDS011;6915;48.296;8.874;2023-09-19T11:00:13;1.75;;;0.80;;
13685;SDS011;6915;48.296;8.874;2023-09-19T11:06:04;1.77;;;1.00;;
13685;SDS011;6915;48.296;8.874;2023-09-19T11:08:53;1.42;;;0.80;;
13685;SDS011;6915;48.296;8.874;2023-09-19T11:11:51;2.40;;;0.90;;
13685;SDS011;6915;48.296;8.874;2023-09-19T11:14:30;0.73;;;0.70;;
13685;SDS011;6915;48.296;8.874;2023-09-19T11:20:30;1.00;;;0.80;;
13685;SDS011;6915;48.296;8.874;2023-09-19T11:23:17;1.38;;;0.95;;
13685;SDS011;6915;48.296;8.874;2023-09-19T11:25:48;2.03;;;0.82;;
13685;SDS011;6915;48.296;8.874;2023-09-19T11:28:33;1.92;;;0.90;;
13685;SDS011;6915;48.296;8.874;2023-09-19T11:40:43;2.17;;;1.10;;
13685;SDS011;6915;48.296;8.874;2023-09-19T11:43:30;2.25;;;1.23;;
13685;SDS011;6915;48.296;8.874;2023-09-19T11:46:11;1.40;;;1.08;;
13685;SDS011;6915;48.296;8.874;2023-09-19T11:48:42;2.35;;;1.00;;
13685;SDS011;6915;48.296;8.874;2023-09-19T11:51:16;2.90;;;1.00;;
13685;SDS011;6915;48.296;8.874;2023-09-19T11:53:47;1.88;;;1.00;;
13685;SDS011;6915;48.296;8.874;2023-09-19T11:56:28;4.63;;;1.25;;
13685;SDS011;6915;48.296;8.874;2023-09-19T11:59:13;1.27;;;1.10;;
13685;SDS011;6915;48.296;8.874;2023-09-19T12:02:01;1.30;;;1.20;;
13685;SDS011;6915;48.296;8.874;2023-09-19T12:04:44;1.30;;;1.20;;
13685;SDS011;6915;48.296;8.874;2023-09-19T12:10:32;1.25;;;1.00;;
13685;SDS011;6915;48.296;8.874;2023-09-19T12:13:28;0.98;;;0.90;;
13685;SDS011;6915;48.296;8.874;2023-09-19T12:16:11;2.40;;;1.13;;
13685;SDS011;6915;48.296;8.874;2023-09-19T12:18:42;1.40;;;1.30;;
13685;SDS011;6915;48.296;8.874;2023-09-19T12:27:47;1.02;;;1.00;;
13685;SDS011;6915;48.296;8.874;2023-09-19T13:00:48;1.38;;;0.90;;
13685;SDS011;6915;48.296;8.874;2023-09-19T16:25:16;2.03;;;0.90;;
13685;SDS011;6915;48.296;8.874;2023-09-19T16:27:49;1.10;;;1.00;;
13685;SDS011;6915;48.296;8.874;2023-09-19T16:30:17;1.90;;;1.40;;
13685;SDS011;6915;48.296;8.874;2023-09-19T16:32:46;1.20;;;1.10;;
13685;SDS011;6915;48.296;8.874;2023-09-19T16:38:59;1.02;;;0.95;;
13685;SDS011;6915;48.296;8.874;2023-09-19T16:41:43;0.88;;;0.88;;
13685;SDS011;6915;48.296;8.874;2023-09-19T16:44:12;1.08;;;0.88;;
13685;SDS011;6915;48.296;8.874;2023-09-19T16:46:43;1.63;;;0.95;;
13685;SDS011;6915;48.296;8.874;2023-09-19T16:49:15;2.13;;;0.90;;
13685;SDS011;6915;48.296;8.874;2023-09-19T16:51:45;1.27;;;1.02;;
13685;SDS011;6915;48.296;8.874;2023-09-19T16:54:17;0.70;;;0.70;;
13685;SDS011;6915;48.296;8.874;2023-09-19T16:56:47;1.10;;;0.90;;
13685;SDS011;6915;48.296;8.874;2023-09-19T16:59:18;1.95;;;0.90;;
13685;SDS011;6915;48.296;8.874;2023-09-19T17:01:54;1.48;;;0.98;;
13685;SDS011;6915;48.296;8.874;2023-09-19T17:07:02;1.95;;;0.80;;
13685;SDS011;6915;48.296;8.874;2023-09-19T17:08:39;1.00;;;1.00;;
13685;SDS011;6915;48.296;8.874;2023-09-19T17:11:26;2.63;;;1.02;;
13685;SDS011;6915;48.296;8.874;2023-09-19T17:14:00;1.15;;;1.10;;
13685;SDS011;6915;48.296;8.874;2023-09-19T17:16:36;0.98;;;0.95;;
13685;SDS011;6915;48.296;8.874;2023-09-19T17:19:26;2.70;;;0.98;;
13685;SDS011;6915;48.296;8.874;2023-09-19T17:21:54;1.88;;;0.95;;
13685;SDS011;6915;48.296;8.874;2023-09-19T17:24:33;2.33;;;1.10;;
13685;SDS011;6915;48.296;8.874;2023-09-19T17:27:29;0.70;;;0.70;;
13685;SDS011;6915;48.296;8.874;2023-09-19T17:30:02;2.03;;;1.15;;
13685;SDS011;6915;48.296;8.874;2023-09-19T17:32:40;1.38;;;0.93;;
13685;SDS011;6915;48.296;8.874;2023-09-19T17:35:12;1.90;;;1.00;;
13685;SDS011;6915;48.296;8.874;2023-09-19T17:37:49;1.30;;;1.10;;
13685;SDS011;6915;48.296;8.874;2023-09-19T17:40:19;1.30;;;1.00;;
13685;SDS011;6915;48.296;8.874;2023-09-19T17:42:53;1.00;;;0.90;;
13685;SDS011;6915;48.296;8.874;2023-09-19T17:45:30;1.20;;;0.80;;
13685;SDS011;6915;48.296;8.874;2023-09-19T17:48:07;1.05;;;0.90;;
13685;SDS011;6915;48.296;8.874;2023-09-19T17:51:04;2.03;;;0.95;;
13685;SDS011;6915;48.296;8.874;2023-09-19T17:53:50;2.85;;;1.13;;
13685;SDS011;6915;48.296;8.874;2023-09-19T17:56:30;2.15;;;0.90;;
13685;SDS011;6915;48.296;8.874;2023-09-19T17:59:10;1.20;;;1.10;;
13685;SDS011;6915;48.296;8.874;2023-09-19T18:01:42;1.17;;;1.08;;
13685;SDS011;6915;48.296;8.874;2023-09-19T18:04:18;1.13;;;1.02;;
13685;SDS011;6915;48.296;8.874;2023-09-19T18:06:59;3.60;;;1.25;;
13685;SDS011;6915;48.296;8.874;2023-09-19T18:09:35;0.93;;;0.93;;
13685;SDS011;6915;48.296;8.874;2023-09-19T18:12:36;2.20;;;1.30;;
13685;SDS011;6915;48.296;8.874;2023-09-19T18:18:28;2.63;;;1.00;;
13685;SDS011;6915;48.296;8.874;2023-09-19T18:21:02;3.15;;;1.30;;
13685;SDS011;6915;48.296;8.874;2023-09-19T18:23:39;1.20;;;0.90;;
13685;SDS011;6915;48.296;8.874;2023-09-19T18:26:09;2.72;;;1.05;;
13685;SDS011;6915;48.296;8.874;2023-09-19T18:28:39;3.23;;;1.00;;
13685;SDS011;6915;48.296;8.874;2023-09-19T18:31:21;3.72;;;1.35;;
13685;SDS011;6915;48.296;8.874;2023-09-19T18:36:56;2.55;;;1.02;;
13685;SDS011;6915;48.296;8.874;2023-09-19T18:39:29;1.63;;;0.90;;
13685;SDS011;6915;48.296;8.874;2023-09-19T18:42:04;3.63;;;1.05;;
13685;SDS011;6915;48.296;8.874;2023-09-19T18:44:51;1.87;;;1.00;;
13685;SDS011;6915;48.296;8.874;2023-09-19T18:47:23;1.05;;;0.80;;
13685;SDS011;6915;48.296;8.874;2023-09-19T18:52:55;1.70;;;1.17;;
13685;SDS011;6915;48.296;8.874;2023-09-19T18:55:37;1.00;;;1.00;;
13685;SDS011;6915;48.296;8.874;2023-09-19T18:58:10;0.93;;;0.93;;
13685;SDS011;6915;48.296;8.874;2023-09-19T19:01:02;1.30;;;1.20;;
13685;SDS011;6915;48.296;8.874;2023-09-19T19:03:41;3.80;;;1.40;;
13685;SDS011;6915;48.296;8.874;2023-09-19T20:31:25;2.33;;;1.20;;
13685;SDS011;6915;48.296;8.874;2023-09-19T20:34:39;1.47;;;1.10;;
13685;SDS011;6915;48.296;8.874;2023-09-19T21:42:40;1.53;;;1.40;;
13685;SDS011;6915;48.296;8.874;2023-09-19T21:45:12;2.80;;;1.40;;
13685;SDS011;6915;48.296;8.874;2023-09-19T21:47:48;2.57;;;1.30;;
13685;SDS011;6915;48.296;8.874;2023-09-19T21:50:22;2.03;;;1.60;;
13685;SDS011;6915;48.296;8.874;2023-09-19T21:53:07;4.20;;;1.40;;
13685;SDS011;6915;48.296;8.874;2023-09-19T21:55:57;4.83;;;1.60;;
13685;SDS011;6915;48.296;8.874;2023-09-19T21:58:50;2.33;;;1.37;;
13685;SDS011;6915;48.296;8.874;2023-09-19T22:01:30;2.93;;;1.40;;
13685;SDS011;6915;48.296;8.874;2023-09-19T22:04:01;1.33;;;1.23;;
13685;SDS011;6915;48.296;8.874;2023-09-19T22:06:42;1.40;;;1.30;;
13685;SDS011;6915;48.296;8.874;2023-09-19T22:09:22;2.07;;;1.27;;
13685;SDS011;6915;48.296;8.874;2023-09-19T22:11:56;1.80;;;1.40;;
13685;SDS011;6915;48.296;8.874;2023-09-19T22:14:33;3.83;;;1.30;;
13685;SDS011;6915;48.296;8.874;2023-09-19T22:17:26;2.33;;;1.27;;
13685;SDS011;6915;48.296;8.874;2023-09-19T22:19:59;1.53;;;1.43;;
13685;SDS011;6915;48.296;8.874;2023-09-19T22:22:55;1.33;;;1.20;;
13685;SDS011;6915;48.296;8.874;2023-09-19T22:25:37;1.70;;;1.10;;
13685;SDS011;6915;48.296;8.874;2023-09-19T22:28:52;1.53;;;1.40;;
13685;SDS011;6915;48.296;8.874;2023-09-19T22:31:24;1.73;;;1.40;;
13685;SDS011;6915;48.296;8.874;2023-09-19T22:34:11;3.53;;;1.73;;
13685;SDS011;6915;48.296;8.874;2023-09-19T22:36:42;2.87;;;1.60;;
13685;SDS011;6915;48.296;8.874;2023-09-19T22:39:33;2.33;;;1.50;;
13685;SDS011;6915;48.296;8.874;2023-09-19T22:42:47;1.63;;;1.40;;
13685;SDS011;6915;48.296;8.874;2023-09-19T22:45:24;2.60;;;1.70;;
13685;SDS011;6915;48.296;8.874;2023-09-19T22:48:13;1.50;;;1.37;;
13685;SDS011;6915;48.296;8.874;2023-09-19T22:50:54;2.33;;;1.70;;
13685;SDS011;6915;48.296;8.874;2023-09-19T22:53:47;1.53;;;1.20;;
13685;SDS011;6915;48.296;8.874;2023-09-19T22:56:25;1.40;;;1.30;;
13685;SDS011;6915;48.296;8.874;2023-09-19T22:59:05;1.83;;;1.57;;
13685;SDS011;6915;48.296;8.874;2023-09-19T23:01:44;2.27;;;1.70;;
13685;SDS011;6915;48.296;8.874;2023-09-19T23:10:40;2.20;;;1.47;;
13685;SDS011;6915;48.296;8.874;2023-09-19T23:13:17;4.73;;;1.60;;
13685;SDS011;6915;48.296;8.874;2023-09-19T23:16:05;1.50;;;1.40;;
13685;SDS011;6915;48.296;8.874;2023-09-19T23:18:38;2.23;;;1.33;;
13685;SDS011;6915;48.296;8.874;2023-09-19T23:21:15;1.50;;;1.40;;
13685;SDS011;6915;48.296;8.874;2023-09-19T23:24:01;1.60;;;1.30;;
13685;SDS011;6915;48.296;8.874;2023-09-19T23:26:35;3.00;;;1.70;;
13685;SDS011;6915;48.296;8.874;2023-09-19T23:29:12;1.60;;;1.50;;
13685;SDS011;6915;48.296;8.874;2023-09-19T23:31:46;1.97;;;1.43;;
13685;SDS011;6915;48.296;8.874;2023-09-19T23:34:29;1.47;;;1.30;;
13685;SDS011;6915;48.296;8.874;2023-09-19T23:37:04;4.37;;;1.50;;
13685;SDS011;6915;48.296;8.874;2023-09-19T23:39:36;1.47;;;1.33;;
13685;SDS011;6915;48.296;8.874;2023-09-19T23:42:06;1.60;;;1.33;;
13685;SDS011;6915;48.296;8.874;2023-09-19T23:44:41;2.50;;;1.80;;
13685;SDS011;6915;48.296;8.874;2023-09-19T23:47:14;1.97;;;1.33;;
13685;SDS011;6915;48.296;8.874;2023-09-19T23:49:45;1.83;;;1.40;;
13685;SDS011;6915;48.296;8.874;2023-09-19T23:52:14;2.13;;;1.60;;
13685;SDS011;6915;48.296;8.874;2023-09-19T23:54:44;1.67;;;1.57;;
13685;SDS011;6915;48.296;8.874;2023-09-19T23:57:12;1.63;;;1.40;;
13685;SDS011;6915;48.296;8.874;2023-09-19T23:59:43;2.50;;;1.57;;
